createdAt,value
2022-07-28T00:00:41.202Z,1.42
2022-07-28T00:03:08.287Z,1.40
2022-07-28T00:05:34.843Z,1.60
2022-07-28T00:08:01.312Z,1.23
2022-07-28T00:10:27.916Z,1.55
2022-07-28T00:12:54.372Z,1.30
2022-07-28T00:15:20.852Z,1.20
2022-07-28T00:17:47.267Z,1.45
2022-07-28T00:20:14.229Z,1.30
2022-07-28T00:22:44.796Z,1.20
2022-07-28T00:25:12.127Z,1.25
2022-07-28T00:27:38.818Z,1.58
2022-07-28T00:30:09.996Z,1.30
2022-07-28T00:32:37.619Z,1.50
2022-07-28T00:35:04.858Z,1.40
2022-07-28T00:37:34.649Z,1.58
2022-07-28T00:40:01.251Z,1.50
2022-07-28T00:42:27.681Z,1.83
2022-07-28T00:44:54.135Z,1.77
2022-07-28T00:47:20.624Z,1.40
2022-07-28T00:49:48.240Z,1.50
2022-07-28T00:52:17.050Z,1.80
2022-07-28T00:54:43.944Z,1.50
2022-07-28T00:57:10.384Z,1.50
2022-07-28T00:59:36.834Z,1.70
2022-07-28T01:02:04.414Z,1.50
2022-07-28T01:04:31.845Z,1.80
2022-07-28T01:07:35.819Z,1.52
2022-07-28T01:10:14.360Z,1.40
2022-07-28T01:13:04.191Z,1.80
2022-07-28T01:15:38.313Z,1.70
2022-07-28T01:18:20.285Z,1.70
2022-07-28T01:20:59.102Z,1.52
2022-07-28T01:23:29.426Z,1.83
2022-07-28T01:26:04.662Z,1.50
2022-07-28T01:28:53.349Z,1.80
2022-07-28T01:31:24.660Z,1.63
2022-07-28T01:34:05.626Z,1.52
2022-07-28T01:36:35.780Z,1.60
2022-07-28T01:39:02.879Z,1.60
2022-07-28T01:41:31.081Z,1.77
2022-07-28T01:44:05.840Z,1.52
2022-07-28T01:46:33.359Z,1.85
2022-07-28T01:49:02.472Z,1.80
2022-07-28T01:51:31.094Z,1.67
2022-07-28T01:54:00.100Z,1.90
2022-07-28T01:56:30.694Z,1.67
2022-07-28T01:59:00.200Z,1.70
2022-07-28T02:01:27.646Z,2.00
2022-07-28T02:03:56.287Z,1.80
2022-07-28T02:06:23.633Z,1.75
2022-07-28T02:08:51.524Z,1.80
2022-07-28T02:11:36.926Z,1.70
2022-07-28T02:14:04.770Z,2.00
2022-07-28T02:16:32.155Z,2.10
2022-07-28T02:18:59.862Z,1.80
2022-07-28T02:21:26.822Z,2.10
2022-07-28T02:23:54.800Z,1.90
2022-07-28T02:26:27.142Z,2.30
2022-07-28T02:28:57.319Z,2.05
2022-07-28T02:31:29.861Z,1.70
2022-07-28T02:34:02.037Z,1.50
2022-07-28T02:36:33.554Z,1.73
2022-07-28T02:39:07.403Z,1.83
2022-07-28T02:41:38.740Z,1.65
2022-07-28T02:44:12.920Z,1.90
2022-07-28T02:46:45.141Z,2.00
2022-07-28T02:49:21.629Z,1.80
2022-07-28T02:51:50.928Z,1.77
2022-07-28T02:54:18.493Z,2.00
2022-07-28T02:56:52.966Z,2.25
2022-07-28T02:59:21.886Z,2.00
2022-07-28T03:01:49.619Z,1.75
2022-07-28T03:04:38.012Z,2.30
2022-07-28T03:07:05.754Z,1.80
2022-07-28T03:09:41.633Z,2.17
2022-07-28T03:12:09.307Z,2.00
2022-07-28T03:14:36.426Z,2.20
2022-07-28T03:17:03.475Z,2.20
2022-07-28T03:19:30.006Z,2.00
2022-07-28T03:21:56.463Z,2.20
2022-07-28T03:24:30.020Z,1.90
2022-07-28T03:27:21.458Z,1.90
2022-07-28T03:29:53.126Z,1.90
2022-07-28T03:32:22.257Z,2.30
2022-07-28T03:34:48.958Z,2.20
2022-07-28T03:37:21.852Z,1.90
2022-07-28T03:39:50.909Z,2.00
2022-07-28T03:42:18.622Z,2.03
2022-07-28T03:44:49.023Z,2.20
2022-07-28T03:47:15.747Z,1.90
2022-07-28T03:49:46.102Z,1.90
2022-07-28T03:52:12.726Z,1.80
2022-07-28T03:54:39.129Z,1.90
2022-07-28T03:57:06.460Z,2.00
2022-07-28T03:59:32.891Z,1.98
2022-07-28T04:01:59.382Z,1.95
2022-07-28T04:04:25.913Z,2.10
2022-07-28T04:06:52.403Z,2.57
2022-07-28T04:09:18.944Z,2.00
2022-07-28T04:11:45.448Z,2.40
2022-07-28T04:14:16.480Z,2.40
2022-07-28T04:16:44.131Z,2.90
2022-07-28T04:19:10.619Z,2.00
2022-07-28T04:21:37.123Z,2.20
2022-07-28T04:24:03.816Z,2.15
2022-07-28T04:26:30.283Z,2.55
2022-07-28T04:28:56.720Z,2.08
2022-07-28T04:31:23.187Z,2.37
2022-07-28T04:33:50.633Z,2.40
2022-07-28T04:36:17.480Z,1.98
2022-07-28T04:38:43.994Z,2.00
2022-07-28T04:41:10.878Z,2.33
2022-07-28T04:43:38.655Z,2.10
2022-07-28T04:46:05.191Z,2.45
2022-07-28T04:48:31.666Z,2.60
2022-07-28T04:50:58.088Z,2.40
2022-07-28T04:53:24.734Z,2.22
2022-07-28T04:55:54.601Z,2.10
2022-07-28T04:58:22.641Z,2.38
2022-07-28T05:00:50.599Z,2.42
2022-07-28T05:03:18.198Z,2.33
2022-07-28T05:05:44.608Z,2.00
2022-07-28T05:08:15.777Z,2.20
2022-07-28T05:10:42.207Z,2.38
2022-07-28T05:13:09.892Z,2.28
2022-07-28T05:15:36.366Z,1.80
2022-07-28T05:18:02.927Z,1.80
2022-07-28T05:20:29.396Z,1.80
2022-07-28T05:22:57.318Z,1.63
2022-07-28T05:25:25.175Z,1.63
2022-07-28T05:27:53.047Z,1.48
2022-07-28T05:30:20.173Z,1.70
2022-07-28T05:32:47.840Z,1.47
2022-07-28T05:35:14.605Z,1.40
2022-07-28T05:37:41.512Z,1.30
2022-07-28T05:40:11.805Z,1.48
2022-07-28T05:42:38.560Z,1.80
2022-07-28T05:45:16.411Z,1.50
2022-07-28T05:47:52.612Z,1.63
2022-07-28T05:50:22.312Z,1.45
2022-07-28T05:52:49.278Z,1.20
2022-07-28T05:55:16.034Z,1.40
2022-07-28T05:57:42.488Z,1.30
2022-07-28T06:00:14.949Z,1.10
2022-07-28T06:02:45.690Z,1.17
2022-07-28T06:05:12.534Z,1.75
2022-07-28T06:07:43.093Z,1.10
2022-07-28T06:10:11.693Z,1.10
2022-07-28T06:12:47.522Z,1.08
2022-07-28T06:15:20.735Z,1.10
2022-07-28T06:17:47.894Z,0.93
2022-07-28T06:20:14.792Z,0.85
2022-07-28T06:22:50.107Z,1.10
2022-07-28T06:25:19.643Z,1.13
2022-07-28T06:27:47.914Z,1.50
2022-07-28T06:30:15.320Z,0.90
2022-07-28T06:32:42.225Z,0.93
2022-07-28T06:35:09.246Z,1.30
2022-07-28T06:37:35.744Z,1.20
2022-07-28T06:40:02.773Z,1.70
2022-07-28T06:42:29.237Z,1.35
2022-07-28T06:44:59.229Z,1.30
2022-07-28T06:47:27.115Z,1.20
2022-07-28T06:49:53.564Z,1.25
2022-07-28T06:52:20.835Z,1.40
2022-07-28T06:54:48.675Z,1.40
2022-07-28T06:57:15.481Z,1.38
2022-07-28T06:59:43.442Z,1.50
2022-07-28T07:02:09.983Z,1.30
2022-07-28T07:04:36.649Z,1.38
2022-07-28T07:07:03.799Z,1.30
2022-07-28T07:09:41.550Z,1.23
2022-07-28T07:12:08.059Z,1.00
2022-07-28T07:14:34.560Z,1.35
2022-07-28T07:17:01.010Z,1.38
2022-07-28T07:19:27.454Z,1.20
2022-07-28T07:21:54.107Z,1.13
2022-07-28T07:24:20.565Z,1.10
2022-07-28T07:26:49.522Z,1.00
2022-07-28T07:29:16.102Z,1.38
2022-07-28T07:31:42.710Z,1.17
2022-07-28T07:34:09.231Z,1.35
2022-07-28T07:36:35.723Z,1.57
2022-07-28T07:39:02.475Z,1.20
2022-07-28T07:41:29.003Z,1.60
2022-07-28T07:43:57.191Z,1.55
2022-07-28T07:46:23.721Z,1.40
2022-07-28T07:48:50.285Z,1.80
2022-07-28T07:51:16.794Z,1.58
2022-07-28T07:53:43.187Z,1.50
2022-07-28T07:56:09.666Z,1.40
2022-07-28T07:58:36.057Z,1.52
2022-07-28T08:01:02.489Z,1.63
2022-07-28T08:03:28.929Z,1.65
2022-07-28T08:05:56.751Z,1.58
2022-07-28T08:08:24.172Z,1.20
2022-07-28T08:10:51.132Z,1.50
2022-07-28T08:13:20.358Z,1.30
2022-07-28T08:15:47.114Z,1.45
2022-07-28T08:18:13.655Z,1.35
2022-07-28T08:20:40.081Z,1.20
2022-07-28T08:23:08.282Z,1.20
2022-07-28T08:25:38.462Z,1.47
2022-07-28T08:28:05.329Z,1.30
2022-07-28T08:30:33.009Z,1.40
2022-07-28T08:33:00.379Z,1.20
2022-07-28T08:35:33.541Z,1.20
2022-07-28T08:38:02.037Z,1.50
2022-07-28T08:40:32.192Z,1.20
2022-07-28T08:43:47.420Z,1.52
2022-07-28T08:46:14.698Z,1.20
2022-07-28T08:48:43.647Z,1.30
2022-07-28T08:51:12.014Z,1.13
2022-07-28T08:53:40.103Z,1.40
2022-07-28T08:56:09.366Z,1.85
2022-07-28T08:58:36.905Z,1.60
2022-07-28T09:01:04.356Z,1.20
2022-07-28T09:03:31.003Z,1.03
2022-07-28T09:05:57.867Z,1.13
2022-07-28T09:08:25.268Z,1.70
2022-07-28T09:10:52.563Z,1.38
2022-07-28T09:13:19.639Z,1.20
2022-07-28T09:15:47.106Z,1.60
2022-07-28T09:18:15.006Z,1.42
2022-07-28T09:20:42.646Z,1.60
2022-07-28T09:23:43.308Z,1.10
2022-07-28T09:26:10.985Z,1.40
2022-07-28T09:28:54.682Z,1.40
2022-07-28T09:31:22.977Z,1.30
2022-07-28T09:33:54.404Z,1.42
2022-07-28T09:36:21.472Z,1.25
2022-07-28T09:38:47.975Z,1.10
2022-07-28T09:41:18.520Z,1.00
2022-07-28T09:43:49.754Z,1.00
2022-07-28T09:46:23.014Z,1.45
2022-07-28T09:48:50.086Z,1.20
2022-07-28T09:51:19.135Z,1.15
2022-07-28T09:53:45.902Z,1.10
2022-07-28T09:56:13.311Z,1.05
2022-07-28T09:58:40.857Z,1.30
2022-07-28T10:01:09.357Z,1.50
2022-07-28T10:03:39.596Z,1.50
2022-07-28T10:06:11.455Z,1.47
2022-07-28T10:08:42.223Z,1.80
2022-07-28T10:11:10.122Z,1.80
2022-07-28T10:13:50.696Z,1.75
2022-07-28T10:16:18.911Z,2.05
2022-07-28T10:18:45.445Z,2.10
2022-07-28T10:21:16.963Z,1.95
2022-07-28T10:23:51.974Z,1.90
2022-07-28T10:26:22.565Z,1.90
2022-07-28T10:28:51.672Z,2.22
2022-07-28T10:31:28.576Z,1.77
2022-07-28T10:33:57.888Z,2.08
2022-07-28T10:36:26.085Z,2.50
2022-07-28T10:38:59.817Z,2.35
2022-07-28T10:41:38.428Z,2.05
2022-07-28T10:44:06.049Z,2.13
2022-07-28T10:46:33.206Z,1.88
2022-07-28T10:49:03.725Z,2.50
2022-07-28T10:51:31.297Z,2.40
2022-07-28T10:54:08.884Z,2.40
2022-07-28T10:56:49.076Z,2.50
2022-07-28T10:59:44.810Z,2.00
2022-07-28T11:02:43.159Z,1.92
2022-07-28T11:05:36.604Z,1.92
2022-07-28T11:08:17.040Z,2.03
2022-07-28T11:10:48.879Z,2.00
2022-07-28T11:13:28.793Z,1.90
2022-07-28T11:15:57.582Z,2.15
2022-07-28T11:18:24.614Z,2.00
2022-07-28T11:20:51.319Z,2.03
2022-07-28T11:23:47.685Z,2.27
2022-07-28T11:26:23.544Z,1.90
2022-07-28T11:29:05.626Z,2.45
2022-07-28T11:31:44.193Z,2.15
2022-07-28T11:34:15.672Z,2.00
2022-07-28T11:37:04.538Z,1.70
2022-07-28T11:39:44.137Z,1.80
2022-07-28T11:42:32.326Z,2.28
2022-07-28T11:45:23.530Z,1.75
2022-07-28T11:48:13.502Z,1.83
2022-07-28T11:50:41.704Z,1.73
2022-07-28T11:53:08.410Z,1.48
2022-07-28T11:55:55.849Z,2.17
2022-07-28T11:58:25.756Z,1.85
2022-07-28T12:01:27.106Z,2.00
2022-07-28T12:03:56.825Z,1.80
2022-07-28T12:06:35.346Z,1.80
2022-07-28T12:09:03.375Z,1.95
2022-07-28T12:11:35.188Z,1.67
2022-07-28T12:14:04.512Z,1.95
2022-07-28T12:16:32.508Z,1.60
2022-07-28T12:19:00.704Z,1.90
2022-07-28T12:21:46.403Z,1.77
2022-07-28T12:24:20.101Z,1.63
2022-07-28T12:26:49.991Z,1.75
2022-07-28T12:29:17.726Z,1.50
2022-07-28T12:31:58.956Z,1.60
2022-07-28T12:34:29.281Z,1.20
2022-07-28T12:37:04.588Z,1.23
2022-07-28T12:39:34.377Z,1.35
2022-07-28T12:42:03.856Z,1.40
2022-07-28T12:44:35.344Z,1.63
2022-07-28T12:47:03.414Z,1.65
2022-07-28T12:49:29.879Z,1.58
2022-07-28T12:51:58.477Z,1.40
2022-07-28T12:54:37.481Z,1.40
2022-07-28T12:57:04.813Z,1.40
2022-07-28T12:59:33.622Z,1.60
2022-07-28T13:02:00.613Z,1.48
2022-07-28T13:04:46.245Z,1.73
2022-07-28T13:07:14.187Z,1.63
2022-07-28T13:09:51.431Z,1.83
2022-07-28T13:12:27.921Z,1.48
2022-07-28T13:14:57.878Z,1.40
2022-07-28T13:17:32.389Z,1.35
2022-07-28T13:20:07.128Z,1.40
2022-07-28T13:22:33.607Z,1.23
2022-07-28T13:25:00.105Z,1.13
2022-07-28T13:27:27.409Z,1.27
2022-07-28T13:29:54.656Z,1.23
2022-07-28T13:32:21.455Z,1.23
2022-07-28T13:34:48.009Z,1.25
2022-07-28T13:37:14.660Z,1.40
2022-07-28T13:39:41.475Z,1.10
2022-07-28T13:42:08.480Z,1.30
2022-07-28T13:44:37.785Z,1.10
2022-07-28T13:47:05.860Z,1.13
2022-07-28T13:49:33.973Z,1.25
2022-07-28T13:52:01.581Z,1.13
2022-07-28T13:54:28.238Z,1.33
2022-07-28T13:56:54.777Z,0.97
2022-07-28T13:59:21.326Z,1.00
2022-07-28T14:01:49.968Z,1.15
2022-07-28T14:04:18.309Z,1.10
2022-07-28T14:06:45.855Z,1.00
2022-07-28T14:09:17.847Z,1.03
2022-07-28T14:11:49.274Z,1.00
2022-07-28T14:14:20.460Z,1.20
2022-07-28T14:16:51.824Z,0.80
2022-07-28T14:19:23.565Z,0.85
2022-07-28T14:22:10.450Z,1.00
2022-07-28T14:24:39.802Z,0.95
2022-07-28T14:27:06.268Z,0.98
2022-07-28T14:29:32.845Z,0.90
2022-07-28T14:31:59.540Z,1.00
2022-07-28T14:34:26.116Z,0.90
2022-07-28T14:36:53.105Z,1.08
2022-07-28T14:39:20.213Z,1.00
2022-07-28T14:41:46.626Z,1.13
2022-07-28T14:44:24.364Z,1.02
2022-07-28T14:46:51.557Z,0.83
2022-07-28T14:49:18.223Z,1.00
2022-07-28T14:51:45.047Z,1.15
2022-07-28T14:54:12.318Z,1.13
2022-07-28T14:56:39.051Z,1.02
2022-07-28T14:59:05.550Z,0.90
2022-07-28T15:01:35.990Z,0.90
2022-07-28T15:04:03.391Z,1.00
2022-07-28T15:06:29.798Z,0.90
2022-07-28T15:08:57.745Z,1.00
2022-07-28T15:11:24.492Z,0.80
2022-07-28T15:13:50.931Z,1.00
2022-07-28T15:16:17.430Z,1.30
2022-07-28T15:18:44.719Z,0.90
2022-07-28T15:21:16.395Z,0.80
2022-07-28T15:23:43.546Z,1.00
2022-07-28T15:26:11.134Z,0.88
2022-07-28T15:28:38.436Z,1.23
2022-07-28T15:31:05.437Z,1.20
2022-07-28T15:33:45.457Z,1.00
2022-07-28T15:36:15.434Z,1.10
2022-07-28T15:38:41.979Z,1.05
2022-07-28T15:41:14.952Z,1.17
2022-07-28T16:03:26.254Z,1.40
2022-07-28T16:05:52.785Z,1.30
2022-07-28T16:08:22.966Z,1.20
2022-07-28T16:10:49.874Z,1.00
2022-07-28T16:13:22.809Z,2.45
2022-07-28T16:15:58.639Z,1.20
2022-07-28T16:18:25.083Z,1.30
2022-07-28T16:20:51.517Z,1.13
2022-07-28T16:23:17.961Z,1.20
2022-07-28T16:25:45.240Z,1.23
2022-07-28T16:28:12.521Z,1.20
2022-07-28T16:30:39.006Z,1.60
2022-07-28T16:33:05.546Z,1.10
2022-07-28T16:35:32.922Z,1.17
2022-07-28T16:38:03.726Z,1.27
2022-07-28T16:40:30.883Z,1.20
2022-07-28T16:43:03.431Z,0.95
2022-07-28T16:45:30.994Z,1.00
2022-07-28T16:47:58.053Z,1.20
2022-07-28T16:50:24.643Z,0.93
2022-07-28T16:52:51.829Z,1.00
2022-07-28T16:55:23.341Z,1.42
2022-07-28T16:57:53.111Z,1.05
2022-07-28T17:00:19.712Z,1.00
2022-07-28T17:02:46.291Z,1.10
2022-07-28T17:05:13.703Z,1.10
2022-07-28T17:07:45.931Z,1.15
2022-07-28T17:10:15.324Z,0.90
2022-07-28T17:12:50.071Z,1.25
2022-07-28T17:15:21.774Z,1.00
2022-07-28T17:17:49.735Z,1.27
2022-07-28T17:20:16.644Z,0.90
2022-07-28T17:22:43.221Z,1.00
2022-07-28T17:25:22.661Z,1.15
2022-07-28T17:27:55.282Z,1.17
2022-07-28T17:30:21.999Z,1.10
2022-07-28T17:32:48.452Z,1.20
2022-07-28T17:35:34.680Z,1.00
2022-07-28T17:38:01.392Z,1.00
2022-07-28T17:40:27.917Z,1.02
2022-07-28T17:42:54.451Z,0.93
2022-07-28T17:45:21.481Z,1.42
2022-07-28T17:47:47.905Z,1.30
2022-07-28T17:50:14.465Z,1.30
2022-07-28T17:52:43.258Z,1.05
2022-07-28T17:55:29.448Z,0.97
2022-07-28T17:57:57.895Z,1.00
2022-07-28T18:00:24.351Z,0.88
2022-07-28T18:02:51.723Z,0.88
2022-07-28T18:05:19.124Z,1.05
2022-07-28T18:07:50.428Z,0.97
2022-07-28T18:10:24.765Z,0.93
2022-07-28T18:12:53.991Z,1.00
2022-07-28T18:15:20.427Z,0.90
2022-07-28T18:17:55.529Z,1.30
2022-07-28T18:20:22.838Z,1.00
2022-07-28T18:22:50.549Z,1.10
2022-07-28T18:25:17.187Z,1.20
2022-07-28T18:27:43.679Z,1.15
2022-07-28T18:30:10.902Z,1.10
2022-07-28T18:32:37.345Z,1.00
2022-07-28T18:35:03.831Z,1.00
2022-07-28T18:37:30.825Z,0.80
2022-07-28T18:39:57.568Z,1.17
2022-07-28T18:42:23.985Z,0.93
2022-07-28T18:44:50.469Z,1.20
2022-07-28T18:47:16.908Z,1.38
2022-07-28T18:49:43.479Z,1.17
2022-07-28T18:52:09.983Z,1.10
2022-07-28T18:54:36.413Z,1.00
2022-07-28T18:57:02.903Z,1.00
2022-07-28T18:59:29.281Z,1.08
2022-07-28T19:01:55.728Z,1.08
2022-07-28T19:04:22.250Z,1.05
2022-07-28T19:06:49.754Z,0.80
2022-07-28T19:09:16.188Z,1.30
2022-07-28T19:11:46.241Z,1.50
2022-07-28T19:14:13.720Z,2.78
2022-07-28T19:16:40.440Z,2.53
2022-07-28T19:19:06.957Z,2.17
2022-07-28T19:21:34.340Z,2.47
2022-07-28T19:24:01.200Z,2.28
2022-07-28T19:26:28.131Z,2.10
2022-07-28T19:28:54.672Z,1.40
2022-07-28T19:31:21.236Z,1.85
2022-07-28T19:33:47.934Z,1.70
2022-07-28T19:36:14.759Z,1.63
2022-07-28T19:38:41.649Z,1.50
2022-07-28T19:41:09.051Z,1.58
2022-07-28T19:43:35.632Z,1.60
2022-07-28T19:46:02.453Z,1.50
2022-07-28T19:48:28.958Z,1.45
2022-07-28T19:50:56.438Z,1.60
2022-07-28T19:53:25.270Z,1.50
2022-07-28T19:55:58.510Z,1.40
2022-07-28T19:58:25.164Z,1.40
2022-07-28T20:00:51.734Z,1.25
2022-07-28T20:04:03.449Z,1.50
2022-07-28T20:06:05.334Z,1.23
2022-07-28T20:08:31.834Z,1.40
2022-07-28T20:10:58.440Z,1.40
2022-07-28T20:13:24.935Z,1.10
2022-07-28T20:15:51.427Z,1.10
2022-07-28T20:18:19.229Z,1.42
2022-07-28T20:20:46.716Z,1.25
2022-07-28T20:23:14.771Z,1.48
2022-07-28T20:25:42.448Z,1.15
2022-07-28T20:28:09.173Z,1.00
2022-07-28T20:30:35.671Z,1.10
2022-07-28T20:33:03.921Z,1.08
2022-07-28T20:35:30.373Z,1.17
2022-07-28T20:37:56.789Z,1.05
2022-07-28T20:40:23.340Z,0.93
2022-07-28T20:42:53.352Z,1.10
2022-07-28T20:45:20.127Z,1.13
2022-07-28T20:47:46.524Z,1.00
2022-07-28T20:50:14.581Z,1.00
2022-07-28T20:52:41.607Z,1.10
2022-07-28T20:55:08.845Z,0.98
2022-07-28T20:57:35.318Z,1.60
2022-07-28T21:00:01.800Z,1.80
2022-07-28T21:02:28.299Z,1.60
2022-07-28T21:04:54.956Z,1.80
2022-07-28T21:08:00.232Z,1.80
2022-07-28T21:10:10.052Z,2.03
2022-07-28T21:12:37.368Z,1.90
2022-07-28T21:15:07.924Z,1.75
2022-07-28T21:17:34.996Z,1.48
2022-07-28T21:20:01.866Z,1.70
2022-07-28T21:22:28.312Z,1.15
2022-07-28T21:24:55.646Z,1.30
2022-07-28T21:27:22.957Z,1.20
2022-07-28T21:29:49.838Z,1.30
2022-07-28T21:32:16.454Z,1.30
2022-07-28T21:34:42.890Z,1.55
2022-07-28T21:37:11.460Z,1.40
2022-07-28T21:39:38.540Z,1.67
2022-07-28T21:42:08.074Z,1.40
2022-07-28T21:44:35.538Z,1.45
2022-07-28T21:47:01.921Z,1.60
2022-07-28T21:49:30.494Z,1.60
2022-07-28T21:51:56.962Z,1.83
2022-07-28T21:54:23.625Z,1.92
2022-07-28T21:56:50.157Z,2.00
2022-07-28T21:59:16.623Z,1.92
2022-07-28T22:01:43.139Z,1.90
2022-07-28T22:04:09.646Z,2.08
2022-07-28T22:06:36.248Z,2.00
2022-07-28T22:09:02.780Z,2.30
2022-07-28T22:11:29.330Z,2.53
2022-07-28T22:13:55.819Z,2.10
2022-07-28T22:16:22.308Z,2.30
2022-07-28T22:18:48.781Z,2.60
2022-07-28T22:21:15.439Z,2.30
2022-07-28T22:23:42.076Z,2.25
2022-07-28T22:26:08.583Z,2.40
2022-07-28T22:28:34.982Z,2.70
2022-07-28T22:31:09.090Z,2.60
2022-07-28T22:33:37.769Z,2.30
2022-07-28T22:36:05.976Z,2.70
2022-07-28T22:38:32.459Z,2.87
2022-07-28T22:40:58.914Z,2.83
2022-07-28T22:43:25.514Z,2.63
2022-07-28T22:45:52.022Z,2.50
2022-07-28T22:48:18.910Z,2.80
2022-07-28T22:50:45.558Z,3.17
2022-07-28T22:53:12.021Z,2.70
2022-07-28T22:55:39.907Z,2.92
2022-07-28T22:58:06.720Z,2.70
2022-07-28T23:00:33.331Z,3.00
2022-07-28T23:03:02.950Z,2.70
2022-07-28T23:05:30.448Z,2.78
2022-07-28T23:07:58.759Z,2.88
2022-07-28T23:10:26.332Z,2.95
2022-07-28T23:12:56.077Z,2.95
2022-07-28T23:15:24.910Z,2.80
2022-07-28T23:18:06.554Z,2.60
2022-07-28T23:20:33.018Z,2.92
2022-07-28T23:22:59.457Z,2.58
2022-07-28T23:25:25.885Z,2.65
2022-07-28T23:27:52.377Z,3.00
2022-07-28T23:30:18.886Z,2.90
2022-07-28T23:32:45.329Z,2.80
2022-07-28T23:35:11.886Z,2.97
2022-07-28T23:37:38.371Z,3.10
2022-07-28T23:40:05.261Z,3.10
2022-07-28T23:42:31.924Z,3.20
2022-07-28T23:44:58.323Z,3.00
2022-07-28T23:47:24.746Z,3.28
2022-07-28T23:49:51.390Z,2.95
2022-07-28T23:52:17.821Z,2.83
2022-07-28T23:54:44.233Z,3.00
2022-07-28T23:57:10.705Z,2.92
2022-07-28T23:59:37.215Z,3.40
